Time;durP1;ratioP1;P1;durP2;ratioP2;P2;SDS_P1;SDS_P2;PMS_P1;PMS_P2;Temp;Humidity;BMP_temperature;BMP_pressure;BME280_temperature;BME280_humidity;BME280_pressure;Samples;Min_cycle;Max_cycle;Signal;HPM_P1;HPM_P2
2021/10/12 00:01:44;;;;;;;4.90;1.50;;;21.00;49.80;;;;;;5007253;28;20437;-81
2021/10/12 00:04:12;;;;;;;2.30;1.10;;;21.00;49.80;;;;;;5006326;28;20462;-81
2021/10/12 00:06:40;;;;;;;2.40;1.20;;;20.90;49.90;;;;;;5007056;28;20448;-81
2021/10/12 00:09:08;;;;;;;1.97;1.10;;;20.90;49.80;;;;;;5006942;28;20448;-83
2021/10/12 00:11:36;;;;;;;2.00;1.37;;;20.90;49.80;;;;;;5007267;28;20517;-81
2021/10/12 00:14:04;;;;;;;1.97;1.40;;;20.90;49.80;;;;;;5007524;28;20436;-81
2021/10/12 00:16:34;;;;;;;1.40;1.27;;;20.90;49.80;;;;;;5007282;28;20437;-81
2021/10/12 00:19:02;;;;;;;1.33;1.20;;;20.90;49.90;;;;;;5007390;28;20468;-81
2021/10/12 00:21:30;;;;;;;1.77;1.60;;;20.90;49.90;;;;;;5006556;28;20486;-82
2021/10/12 00:23:58;;;;;;;1.47;1.37;;;20.80;49.80;;;;;;5006649;28;20468;-80
2021/10/12 00:26:27;;;;;;;2.10;1.43;;;20.80;49.90;;;;;;5002476;28;20472;-80
2021/10/12 00:28:55;;;;;;;1.67;1.40;;;20.80;49.90;;;;;;5006767;28;20444;-82
2021/10/12 00:31:23;;;;;;;1.30;1.17;;;20.80;49.90;;;;;;4932751;28;20445;-81
2021/10/12 00:33:56;;;;;;;2.03;1.60;;;20.80;49.90;;;;;;4906961;29;20457;-80
2021/10/12 00:36:24;;;;;;;3.70;1.77;;;20.80;50.10;;;;;;4907871;28;20453;-81
2021/10/12 00:38:52;;;;;;;2.30;1.43;;;20.70;49.90;;;;;;4907487;28;20531;-82
2021/10/12 00:41:21;;;;;;;2.60;1.50;;;20.70;50.00;;;;;;4907299;28;20460;-81
2021/10/12 00:43:52;;;;;;;3.30;1.40;;;20.70;50.00;;;;;;4906973;28;20477;-82
2021/10/12 00:46:20;;;;;;;2.63;1.80;;;20.70;50.00;;;;;;4906857;29;20480;-81
2021/10/12 00:48:48;;;;;;;2.70;1.40;;;20.70;50.00;;;;;;4907143;29;20465;-81
2021/10/12 00:51:18;;;;;;;1.30;1.20;;;20.70;50.00;;;;;;4906751;29;20507;-81
2021/10/12 00:53:46;;;;;;;2.33;1.50;;;20.70;50.10;;;;;;4907519;28;20453;-81
2021/10/12 00:56:14;;;;;;;1.73;1.33;;;20.70;50.00;;;;;;4907229;28;20543;-82
2021/10/12 00:58:42;;;;;;;4.73;1.33;;;20.70;50.00;;;;;;4906256;29;20457;-81
2021/10/12 01:01:14;;;;;;;3.07;1.57;;;20.70;50.00;;;;;;4906996;28;20460;-82
2021/10/12 01:03:43;;;;;;;1.40;1.30;;;20.70;50.00;;;;;;4906485;28;20445;-81
2021/10/12 01:06:11;;;;;;;1.33;1.23;;;20.70;50.00;;;;;;4906801;29;20449;-81
2021/10/12 01:08:40;;;;;;;2.50;1.20;;;20.70;50.00;;;;;;4906655;28;20480;-80
2021/10/12 01:11:12;;;;;;;2.30;1.80;;;20.70;50.00;;;;;;4906710;28;20542;-80
2021/10/12 01:13:40;;;;;;;1.63;1.13;;;20.70;50.00;;;;;;4907039;29;20438;-80
2021/10/12 01:16:08;;;;;;;1.50;1.10;;;20.70;50.00;;;;;;4906057;29;20495;-80
2021/10/12 01:18:36;;;;;;;1.37;1.10;;;20.70;50.10;;;;;;4906453;28;20606;-80
2021/10/12 01:21:06;;;;;;;3.03;1.20;;;20.60;50.00;;;;;;4906357;28;20504;-81
2021/10/12 01:23:34;;;;;;;1.47;1.10;;;20.70;50.00;;;;;;4909955;28;20502;-80
2021/10/12 01:26:02;;;;;;;1.20;1.10;;;20.70;50.00;;;;;;4914263;29;20490;-80
2021/10/12 01:28:31;;;;;;;1.83;1.60;;;20.70;49.90;;;;;;4915611;29;20523;-80
2021/10/12 01:30:59;;;;;;;1.30;1.20;;;20.60;49.90;;;;;;4915764;29;20518;-81
2021/10/12 01:33:27;;;;;;;2.80;1.43;;;20.60;50.00;;;;;;4915448;29;20442;-81
2021/10/12 01:35:55;;;;;;;1.43;1.33;;;20.60;50.00;;;;;;4916122;28;20448;-81
2021/10/12 01:38:31;;;;;;;1.67;1.30;;;20.60;50.10;;;;;;4915660;28;20515;-81
2021/10/12 01:40:59;;;;;;;2.80;1.40;;;20.60;50.20;;;;;;4912396;29;20476;-81
2021/10/12 01:43:27;;;;;;;2.90;1.50;;;20.60;50.10;;;;;;4911214;29;20453;-81
2021/10/12 01:46:02;;;;;;;1.53;1.20;;;20.60;50.00;;;;;;4916676;29;20522;-81
2021/10/12 01:48:30;;;;;;;4.20;1.40;;;20.50;50.00;;;;;;4916496;29;20618;-81
2021/10/12 01:50:58;;;;;;;1.90;1.30;;;20.50;50.10;;;;;;4914455;29;20455;-81
2021/10/12 01:53:27;;;;;;;5.40;1.57;;;20.60;50.10;;;;;;4913632;28;20473;-81
2021/10/12 01:55:56;;;;;;;1.40;1.30;;;20.50;50.00;;;;;;4916688;29;20436;-81
2021/10/12 01:58:24;;;;;;;1.20;1.10;;;20.50;50.10;;;;;;4910268;29;20445;-81
2021/10/12 02:00:52;;;;;;;1.57;1.30;;;20.50;50.00;;;;;;4905922;29;20508;-81
2021/10/12 02:03:22;;;;;;;1.30;1.20;;;20.50;49.90;;;;;;4905558;29;20460;-81
2021/10/12 02:05:51;;;;;;;1.37;1.27;;;20.50;50.00;;;;;;4906492;29;20464;-81
2021/10/12 02:08:19;;;;;;;1.83;1.40;;;20.50;50.00;;;;;;4906115;29;20475;-81
2021/10/12 02:10:48;;;;;;;2.70;1.30;;;20.50;50.00;;;;;;4905608;29;20445;-81
2021/10/12 02:13:18;;;;;;;1.63;1.20;;;20.50;50.00;;;;;;4905684;29;20441;-81
2021/10/12 02:15:46;;;;;;;1.87;1.07;;;20.50;49.90;;;;;;4904877;28;20460;-81
2021/10/12 02:18:17;;;;;;;1.73;1.40;;;20.50;50.00;;;;;;4946431;28;20571;-81
2021/10/12 02:20:45;;;;;;;2.30;1.53;;;20.40;49.90;;;;;;4904134;29;20485;-81
2021/10/12 02:23:13;;;;;;;1.20;1.10;;;20.50;50.00;;;;;;4910015;29;20476;-81
2021/10/12 02:25:42;;;;;;;3.27;1.60;;;20.40;50.00;;;;;;4959162;28;20579;-82
2021/10/12 02:28:12;;;;;;;1.50;1.20;;;20.40;50.00;;;;;;4914911;28;20603;-82
2021/10/12 02:30:40;;;;;;;1.57;1.13;;;20.40;50.10;;;;;;4909525;29;20519;-81
2021/10/12 02:33:09;;;;;;;2.07;1.30;;;20.40;50.00;;;;;;4909255;29;20431;-81
2021/10/12 02:35:37;;;;;;;4.60;1.50;;;20.40;50.00;;;;;;4905840;29;20449;-80
2021/10/12 02:38:05;;;;;;;1.77;1.20;;;20.40;50.00;;;;;;4905287;29;20449;-80
2021/10/12 02:40:33;;;;;;;2.10;1.33;;;20.40;50.10;;;;;;4905143;29;20480;-79
2021/10/12 02:43:01;;;;;;;1.60;0.93;;;20.40;50.00;;;;;;4905461;29;20445;-79
2021/10/12 02:45:31;;;;;;;2.50;1.60;;;20.30;50.00;;;;;;4905991;29;20441;-79
2021/10/12 02:47:59;;;;;;;1.40;1.30;;;20.30;50.50;;;;;;4905486;29;20485;-79
2021/10/12 02:50:27;;;;;;;1.83;1.30;;;20.40;50.00;;;;;;4905612;29;20444;-79
2021/10/12 02:52:55;;;;;;;2.93;1.03;;;20.30;50.00;;;;;;4905250;29;20484;-79
2021/10/12 02:55:23;;;;;;;2.03;1.00;;;20.30;49.90;;;;;;4904851;29;20452;-79
2021/10/12 02:57:52;;;;;;;1.87;1.30;;;20.30;50.00;;;;;;4905210;29;20453;-79
2021/10/12 03:00:23;;;;;;;2.30;1.33;;;20.30;49.90;;;;;;4904675;28;20480;-79
2021/10/12 03:02:52;;;;;;;2.47;1.40;;;20.30;50.00;;;;;;4905299;28;20473;-79
2021/10/12 03:05:20;;;;;;;6.63;1.73;;;20.30;50.00;;;;;;4905216;28;20433;-79
2021/10/12 03:07:48;;;;;;;3.47;1.40;;;20.30;50.00;;;;;;4905568;29;20453;-79
2021/10/12 03:10:16;;;;;;;3.43;1.50;;;20.30;50.00;;;;;;4904511;29;20452;-79
2021/10/12 03:12:44;;;;;;;2.40;1.47;;;20.30;50.00;;;;;;4905038;29;20510;-79
2021/10/12 03:15:12;;;;;;;2.93;1.10;;;20.30;50.00;;;;;;4905118;29;20492;-79
2021/10/12 03:17:40;;;;;;;2.30;1.20;;;20.20;50.00;;;;;;4905094;29;20445;-79
2021/10/12 03:20:10;;;;;;;2.17;1.17;;;20.30;50.10;;;;;;4905171;28;20452;-79
2021/10/12 03:22:39;;;;;;;1.93;1.20;;;20.30;49.90;;;;;;4905004;29;20437;-79
2021/10/12 03:25:07;;;;;;;1.30;1.20;;;20.20;50.00;;;;;;4898360;29;20438;-79
2021/10/12 03:27:35;;;;;;;1.30;1.10;;;20.30;50.00;;;;;;4886156;28;20476;-79
2021/10/12 03:30:04;;;;;;;0.93;0.93;;;20.30;50.00;;;;;;4886167;29;20449;-79
2021/10/12 03:32:32;;;;;;;2.13;1.40;;;20.20;50.00;;;;;;4886167;29;20433;-80
2021/10/12 03:35:00;;;;;;;1.30;1.20;;;20.30;50.10;;;;;;4885846;29;20458;-80
2021/10/12 03:37:29;;;;;;;1.13;1.03;;;20.30;50.10;;;;;;4886622;29;20473;-79
2021/10/12 03:39:58;;;;;;;2.67;1.20;;;20.30;50.10;;;;;;4889341;29;20461;-79
2021/10/12 03:42:26;;;;;;;1.93;1.43;;;20.20;50.00;;;;;;4888682;29;20481;-79
2021/10/12 03:44:57;;;;;;;1.70;1.60;;;20.30;50.10;;;;;;4888720;29;20457;-79
2021/10/12 03:47:25;;;;;;;2.80;1.30;;;20.20;50.00;;;;;;4889246;29;20469;-82
2021/10/12 03:49:53;;;;;;;1.50;1.20;;;20.30;50.10;;;;;;4889220;28;20578;-79
2021/10/12 03:52:21;;;;;;;2.07;1.33;;;20.30;50.00;;;;;;4888627;29;20437;-79
2021/10/12 03:54:51;;;;;;;1.93;1.33;;;20.20;50.00;;;;;;4889051;29;20445;-79
2021/10/12 03:57:21;;;;;;;2.10;1.27;;;20.20;49.90;;;;;;4888521;28;20524;-79
2021/10/12 03:59:49;;;;;;;1.47;0.93;;;20.20;50.00;;;;;;4888850;29;20478;-79
2021/10/12 04:02:17;;;;;;;1.93;1.20;;;20.20;50.10;;;;;;4895890;28;20511;-79
2021/10/12 04:04:45;;;;;;;2.30;1.23;;;20.20;50.10;;;;;;4903955;28;20430;-78
2021/10/12 04:07:13;;;;;;;2.20;1.27;;;20.30;50.20;;;;;;4908405;29;20465;-78
2021/10/12 04:09:41;;;;;;;3.50;1.17;;;20.20;50.00;;;;;;4907088;28;20441;-79
2021/10/12 04:12:10;;;;;;;2.90;1.47;;;20.20;50.10;;;;;;4906719;29;20499;-79
2021/10/12 04:14:38;;;;;;;3.77;1.27;;;20.20;50.20;;;;;;4906632;28;20449;-79
2021/10/12 04:17:06;;;;;;;1.10;1.00;;;20.20;50.20;;;;;;4907311;28;20444;-81
2021/10/12 04:19:35;;;;;;;1.83;1.23;;;20.20;50.20;;;;;;4907105;28;20508;-78
2021/10/12 04:22:03;;;;;;;2.33;1.00;;;20.20;50.20;;;;;;4906841;29;20559;-80
2021/10/12 04:24:31;;;;;;;1.33;1.07;;;20.20;50.30;;;;;;4906885;29;20445;-80
2021/10/12 04:26:59;;;;;;;1.80;0.97;;;20.30;50.30;;;;;;4906724;29;20524;-80
2021/10/12 04:29:28;;;;;;;1.47;1.37;;;20.30;50.30;;;;;;4905652;28;20453;-80
2021/10/12 04:31:56;;;;;;;2.20;1.37;;;20.30;50.30;;;;;;4906620;29;20437;-81
2021/10/12 04:34:24;;;;;;;2.23;1.23;;;20.20;50.30;;;;;;4907143;28;20580;-81
2021/10/12 04:36:52;;;;;;;1.30;1.20;;;20.30;50.40;;;;;;4906682;28;20558;-81
2021/10/12 04:39:20;;;;;;;3.60;1.50;;;20.30;50.40;;;;;;4906732;29;20516;-81
2021/10/12 04:41:49;;;;;;;2.80;1.33;;;20.20;50.20;;;;;;4906596;29;20476;-81
2021/10/12 04:44:17;;;;;;;1.20;1.10;;;20.30;50.40;;;;;;4907135;29;20457;-80
2021/10/12 04:46:46;;;;;;;1.00;1.00;;;20.20;50.30;;;;;;4906855;29;20434;-80
2021/10/12 04:49:14;;;;;;;1.30;1.20;;;20.30;50.40;;;;;;4906246;28;20535;-80
2021/10/12 04:51:42;;;;;;;2.73;1.20;;;20.30;50.40;;;;;;4906670;29;20444;-80
2021/10/12 04:54:10;;;;;;;1.73;1.20;;;20.30;50.40;;;;;;4907104;28;20456;-80
2021/10/12 04:56:39;;;;;;;1.13;1.00;;;20.30;50.40;;;;;;4906679;29;20527;-80
2021/10/12 04:59:07;;;;;;;2.50;1.10;;;20.30;50.40;;;;;;4906741;29;20437;-80
2021/10/12 05:01:35;;;;;;;1.83;1.30;;;20.30;50.40;;;;;;4906242;29;20566;-80
2021/10/12 05:04:06;;;;;;;1.40;1.20;;;20.30;50.50;;;;;;4906155;29;20456;-80
2021/10/12 05:06:35;;;;;;;2.07;1.33;;;20.30;50.40;;;;;;4906164;28;20456;-80
2021/10/12 05:09:03;;;;;;;1.30;1.00;;;20.30;50.50;;;;;;4906454;28;20515;-80
2021/10/12 05:11:31;;;;;;;2.10;1.60;;;20.30;50.40;;;;;;4906551;29;20453;-80
2021/10/12 05:13:59;;;;;;;1.20;1.10;;;20.30;50.50;;;;;;4906202;29;20481;-80
2021/10/12 05:16:28;;;;;;;3.90;1.57;;;20.30;50.60;;;;;;4906302;29;20467;-81
2021/10/12 05:18:59;;;;;;;1.27;1.17;;;20.30;50.50;;;;;;4905941;29;20452;-80
2021/10/12 05:21:28;;;;;;;1.43;1.10;;;20.30;50.50;;;;;;4906278;29;20472;-80
2021/10/12 05:23:56;;;;;;;0.83;0.80;;;20.30;50.40;;;;;;4906473;29;20436;-80
2021/10/12 05:26:24;;;;;;;4.00;1.13;;;20.30;50.50;;;;;;4906059;29;20445;-80
2021/10/12 05:28:52;;;;;;;1.43;1.33;;;20.30;50.50;;;;;;4906110;29;20549;-80
2021/10/12 05:31:20;;;;;;;0.90;0.90;;;20.30;50.60;;;;;;4905902;29;20468;-80
2021/10/12 05:33:48;;;;;;;1.20;1.10;;;20.20;50.70;;;;;;4906288;29;20453;-81
2021/10/12 05:36:17;;;;;;;3.63;1.10;;;20.30;50.70;;;;;;4906205;29;20437;-81
2021/10/12 05:38:46;;;;;;;1.10;1.00;;;20.30;50.80;;;;;;4905779;29;20534;-80
2021/10/12 05:41:15;;;;;;;3.47;1.10;;;20.30;50.80;;;;;;4905606;29;20437;-81
2021/10/12 05:43:43;;;;;;;1.30;1.20;;;20.30;50.70;;;;;;4906156;29;20449;-80
2021/10/12 05:46:11;;;;;;;1.77;1.10;;;20.30;50.70;;;;;;4905395;29;20444;-81
2021/10/12 05:48:39;;;;;;;1.80;1.40;;;20.30;50.60;;;;;;4905698;29;20434;-80
2021/10/12 05:51:08;;;;;;;1.20;1.00;;;20.20;50.60;;;;;;4905243;29;20464;-80
2021/10/12 05:53:45;;;;;;;1.40;1.10;;;20.30;50.70;;;;;;4906139;29;20472;-81
2021/10/12 05:56:16;;;;;;;1.27;1.17;;;20.30;50.60;;;;;;4905724;28;20453;-80
2021/10/12 05:58:48;;;;;;;2.80;1.20;;;20.30;50.70;;;;;;4905429;29;20523;-80
2021/10/12 06:01:17;;;;;;;1.30;1.20;;;20.30;50.70;;;;;;4904350;29;20438;-81
2021/10/12 06:03:45;;;;;;;1.50;1.00;;;20.30;50.60;;;;;;4905534;29;20551;-80
2021/10/12 06:06:13;;;;;;;1.13;1.03;;;20.30;50.70;;;;;;4886934;28;20469;-80
2021/10/12 06:08:41;;;;;;;1.73;1.07;;;20.30;50.70;;;;;;4886414;29;20458;-80
2021/10/12 06:11:09;;;;;;;1.33;1.23;;;20.30;50.70;;;;;;4886230;29;20454;-80
2021/10/12 06:13:40;;;;;;;5.43;0.90;;;20.30;50.70;;;;;;4886582;29;20481;-80
2021/10/12 06:16:08;;;;;;;2.47;1.37;;;20.30;50.70;;;;;;4886570;29;20532;-80
2021/10/12 06:18:36;;;;;;;1.10;0.90;;;20.30;50.70;;;;;;4886632;29;20465;-80
2021/10/12 06:21:04;;;;;;;1.30;1.20;;;20.30;50.70;;;;;;4886879;29;20484;-79
2021/10/12 06:23:33;;;;;;;1.20;1.10;;;20.30;50.80;;;;;;4886366;29;20485;-80
2021/10/12 06:26:01;;;;;;;2.90;1.23;;;20.30;50.80;;;;;;4886497;29;20464;-80
2021/10/12 06:28:30;;;;;;;1.33;1.23;;;20.30;50.80;;;;;;4886524;29;20594;-79
2021/10/12 06:30:59;;;;;;;1.30;1.20;;;20.30;50.70;;;;;;4886142;29;20442;-79
2021/10/12 06:33:31;;;;;;;1.37;1.20;;;20.30;50.70;;;;;;4886529;29;20445;-79
2021/10/12 06:35:59;;;;;;;1.30;1.20;;;20.30;50.80;;;;;;4886429;29;20473;-78
2021/10/12 06:38:28;;;;;;;1.17;1.10;;;20.30;50.80;;;;;;4885928;29;20442;-79
2021/10/12 06:40:56;;;;;;;1.57;1.30;;;20.30;50.80;;;;;;4885410;28;20529;-79
2021/10/12 06:43:24;;;;;;;1.80;1.13;;;20.40;50.90;;;;;;4885826;29;20485;-78
2021/10/12 06:45:52;;;;;;;1.80;1.20;;;20.30;50.80;;;;;;4886522;29;20465;-79
2021/10/12 06:48:21;;;;;;;1.37;1.23;;;20.30;50.70;;;;;;4886336;29;20454;-78
2021/10/12 06:50:50;;;;;;;1.20;1.13;;;20.40;50.80;;;;;;4885734;29;20541;-79
2021/10/12 06:53:42;;;;;;;1.40;1.17;;;20.40;50.70;;;;;;4885533;29;20443;-79
2021/10/12 06:56:10;;;;;;;1.50;1.27;;;20.40;50.70;;;;;;4885894;29;20521;-78
2021/10/12 06:58:38;;;;;;;1.07;0.90;;;20.40;50.70;;;;;;4885750;29;20430;-79
2021/10/12 07:01:20;;;;;;;1.30;1.20;;;20.50;50.70;;;;;;4885434;29;20454;-79
2021/10/12 07:03:50;;;;;;;2.60;1.10;;;20.50;50.70;;;;;;4886009;28;20539;-79
2021/10/12 07:06:18;;;;;;;1.40;1.30;;;20.50;50.60;;;;;;4885729;29;20438;-79
2021/10/12 07:08:46;;;;;;;2.20;1.40;;;20.50;50.70;;;;;;4885960;29;20481;-80
2021/10/12 07:11:14;;;;;;;1.50;1.40;;;20.50;50.60;;;;;;4885405;29;20458;-79
2021/10/12 07:13:43;;;;;;;1.20;1.10;;;20.50;50.60;;;;;;4888649;29;20457;-79
2021/10/12 07:16:11;;;;;;;3.23;1.30;;;20.50;50.70;;;;;;4888825;29;20508;-79
2021/10/12 07:18:39;;;;;;;1.10;0.93;;;20.50;50.70;;;;;;4889065;29;20450;-79
2021/10/12 07:21:08;;;;;;;1.20;1.07;;;20.50;50.80;;;;;;4888478;29;20438;-79
2021/10/12 07:23:37;;;;;;;1.00;1.00;;;20.50;50.80;;;;;;4889159;29;20505;-79
2021/10/12 07:26:05;;;;;;;1.17;1.10;;;20.50;50.80;;;;;;4889121;29;20450;-79
2021/10/12 07:28:33;;;;;;;1.27;1.17;;;20.60;50.80;;;;;;4888658;29;20520;-80
2021/10/12 07:31:03;;;;;;;1.13;1.00;;;20.60;51.20;;;;;;4888284;29;20492;-79
2021/10/12 07:33:32;;;;;;;1.23;1.13;;;20.70;50.80;;;;;;4888938;29;20488;-79
2021/10/12 07:36:00;;;;;;;1.77;1.20;;;20.70;50.60;;;;;;4888477;29;20449;-79
2021/10/12 07:38:29;;;;;;;1.57;1.20;;;20.70;50.70;;;;;;4888934;29;20440;-79
2021/10/12 07:40:58;;;;;;;3.10;1.40;;;20.80;50.50;;;;;;4888352;29;20508;-79
2021/10/12 07:43:26;;;;;;;1.57;1.47;;;20.80;50.60;;;;;;4888461;29;20477;-79
2021/10/12 07:45:54;;;;;;;1.63;1.40;;;20.80;50.70;;;;;;4899379;29;20530;-79
2021/10/12 07:48:23;;;;;;;1.40;1.30;;;20.80;50.50;;;;;;4907618;28;20445;-79
2021/10/12 07:50:51;;;;;;;1.40;1.30;;;20.90;50.60;;;;;;4907024;29;20437;-79
2021/10/12 07:53:20;;;;;;;1.33;1.10;;;20.90;50.50;;;;;;4907564;29;20607;-79
2021/10/12 07:55:51;;;;;;;1.23;1.10;;;20.90;50.50;;;;;;4906902;29;20480;-79
2021/10/12 07:58:19;;;;;;;1.30;1.20;;;20.90;50.50;;;;;;4907293;29;20441;-79
2021/10/12 08:00:47;;;;;;;1.87;1.30;;;21.00;50.70;;;;;;4906551;28;20511;-79
2021/10/12 08:03:16;;;;;;;1.50;1.40;;;21.10;50.60;;;;;;4907394;28;20486;-79
2021/10/12 08:05:45;;;;;;;1.73;1.27;;;21.20;50.60;;;;;;4907667;29;20547;-79
2021/10/12 08:08:13;;;;;;;1.43;1.33;;;21.30;50.60;;;;;;4906979;28;20457;-77
2021/10/12 08:10:41;;;;;;;1.30;1.20;;;21.40;50.70;;;;;;4909244;28;20527;-78
2021/10/12 08:13:14;;;;;;;1.30;1.20;;;21.60;50.70;;;;;;4906844;29;20446;-78
2021/10/12 08:15:44;;;;;;;2.60;1.20;;;21.80;50.70;;;;;;4906970;29;20433;-78
2021/10/12 08:18:12;;;;;;;1.50;1.40;;;22.00;50.50;;;;;;4906588;29;20453;-78
2021/10/12 08:20:40;;;;;;;1.77;1.20;;;22.20;50.30;;;;;;4906441;28;21179;-78
2021/10/12 08:23:08;;;;;;;1.27;1.17;;;22.40;50.20;;;;;;4906358;29;20505;-78
2021/10/12 08:25:36;;;;;;;1.47;1.30;;;22.60;50.00;;;;;;4906660;29;20464;-78
2021/10/12 08:28:04;;;;;;;1.23;1.00;;;22.80;50.00;;;;;;4906913;29;20437;-79
2021/10/12 08:30:35;;;;;;;1.40;1.30;;;23.00;49.80;;;;;;4906137;29;20441;-78
2021/10/12 08:33:03;;;;;;;5.60;1.27;;;23.20;49.70;;;;;;4906515;29;20495;-78
2021/10/12 08:35:32;;;;;;;2.20;1.20;;;23.40;49.50;;;;;;4906927;29;20523;-79
2021/10/12 08:38:00;;;;;;;1.50;1.40;;;23.60;49.50;;;;;;4906224;28;20444;-78
2021/10/12 08:40:29;;;;;;;1.40;1.30;;;23.80;49.40;;;;;;4903177;29;20437;-78
2021/10/12 08:42:58;;;;;;;1.30;1.20;;;24.00;49.20;;;;;;4906072;29;20507;-78
2021/10/12 08:45:26;;;;;;;1.47;1.37;;;24.20;49.10;;;;;;4905989;29;20460;-78
2021/10/12 08:47:56;;;;;;;1.70;1.13;;;24.40;48.90;;;;;;4906349;28;20451;-78
2021/10/12 08:50:25;;;;;;;1.27;1.27;;;24.60;48.70;;;;;;4905758;29;20449;-79
2021/10/12 08:52:53;;;;;;;1.33;1.23;;;24.60;48.50;;;;;;4905910;29;20449;-79
2021/10/12 08:55:21;;;;;;;2.10;1.40;;;24.60;48.50;;;;;;4906030;29;20457;-78
2021/10/12 08:57:49;;;;;;;1.13;1.03;;;24.70;48.50;;;;;;4905568;29;20436;-80
2021/10/12 09:00:18;;;;;;;1.03;1.03;;;24.70;48.40;;;;;;4905735;29;20433;-80
2021/10/12 09:03:16;;;;;;;1.07;1.07;;;24.60;48.30;;;;;;4903272;29;20433;-78
2021/10/12 09:05:52;;;;;;;1.20;1.20;;;24.60;48.40;;;;;;4903089;29;20519;-78
2021/10/12 09:08:27;;;;;;;1.30;1.20;;;24.50;48.60;;;;;;4905759;29;20457;-79
2021/10/12 09:10:58;;;;;;;1.13;1.03;;;24.50;48.60;;;;;;4904165;29;20490;-79
2021/10/12 09:13:26;;;;;;;1.47;1.10;;;24.40;48.70;;;;;;4903511;29;20452;-80
2021/10/12 09:16:08;;;;;;;1.30;1.20;;;24.50;48.80;;;;;;4905982;29;20456;-80
2021/10/12 09:18:50;;;;;;;1.60;1.50;;;24.60;48.90;;;;;;4904575;28;20449;-80
2021/10/12 09:21:20;;;;;;;2.00;1.20;;;24.80;48.80;;;;;;4904687;28;20456;-80
2021/10/12 09:23:48;;;;;;;1.10;1.10;;;24.80;48.40;;;;;;4900758;29;20542;-80
2021/10/12 09:26:21;;;;;;;1.40;1.23;;;24.90;48.40;;;;;;4906079;29;20449;-80
2021/10/12 09:28:51;;;;;;;1.93;1.10;;;25.10;48.60;;;;;;4905655;28;20412;-80
2021/10/12 09:31:19;;;;;;;1.20;1.17;;;25.30;48.50;;;;;;4904943;29;20456;-80
2021/10/12 09:33:52;;;;;;;1.90;1.40;;;25.60;48.30;;;;;;4905432;28;20479;-80
2021/10/12 09:36:30;;;;;;;1.53;1.30;;;25.80;48.10;;;;;;4905324;29;20452;-80
2021/10/12 09:38:58;;;;;;;1.43;1.33;;;26.10;47.70;;;;;;4905681;29;20456;-81
2021/10/12 09:41:27;;;;;;;1.30;1.20;;;26.30;47.60;;;;;;4906037;28;20476;-81
2021/10/12 09:44:08;;;;;;;1.23;1.20;;;26.60;47.40;;;;;;4905744;28;20476;-82
2021/10/12 09:46:38;;;;;;;1.20;1.10;;;27.00;47.10;;;;;;4905962;29;20460;-82
2021/10/12 09:49:12;;;;;;;1.20;1.10;;;27.20;46.40;;;;;;4905326;28;20432;-79
2021/10/12 09:52:00;;;;;;;1.20;1.10;;;27.20;46.10;;;;;;4906019;29;20485;-79
2021/10/12 09:54:29;;;;;;;1.17;1.17;;;27.10;46.20;;;;;;4901447;29;20412;-78
2021/10/12 09:56:58;;;;;;;2.60;1.30;;;26.90;46.40;;;;;;4905464;28;20519;-80
2021/10/12 09:59:26;;;;;;;2.60;1.57;;;26.70;46.60;;;;;;4905202;29;20415;-79
2021/10/12 10:01:54;;;;;;;1.73;1.20;;;26.50;46.80;;;;;;4904889;28;20420;-78
2021/10/12 10:04:25;;;;;;;1.20;1.10;;;26.30;47.10;;;;;;4904894;29;20530;-79
2021/10/12 10:06:59;;;;;;;2.87;1.40;;;26.20;47.40;;;;;;4908501;29;20434;-79
2021/10/12 10:09:27;;;;;;;2.70;1.40;;;26.10;47.60;;;;;;4913092;28;20467;-78
2021/10/12 10:11:55;;;;;;;1.37;1.17;;;26.10;48.10;;;;;;4914750;29;20440;-79
2021/10/12 10:14:23;;;;;;;2.83;1.23;;;26.20;48.20;;;;;;4915262;29;20436;-79
2021/10/12 10:16:52;;;;;;;1.90;1.40;;;26.40;48.20;;;;;;4910388;28;20423;-79
2021/10/12 10:19:24;;;;;;;1.43;1.33;;;26.70;48.70;;;;;;4913189;28;20493;-81
2021/10/12 10:21:54;;;;;;;2.33;1.10;;;27.00;47.80;;;;;;4908873;29;20428;-80
2021/10/12 10:24:41;;;;;;;1.50;1.30;;;27.30;47.50;;;;;;4907140;29;20448;-79
2021/10/12 10:27:09;;;;;;;1.93;1.20;;;27.70;47.20;;;;;;4905205;29;20468;-80
2021/10/12 10:29:38;;;;;;;1.93;1.73;;;28.00;46.80;;;;;;4904747;29;20441;-80
2021/10/12 10:32:22;;;;;;;2.60;1.50;;;28.30;46.80;;;;;;4905118;29;20447;-79
2021/10/12 10:34:59;;;;;;;2.47;1.47;;;28.80;46.30;;;;;;4905487;29;20419;-77
2021/10/12 10:37:32;;;;;;;5.47;1.20;;;29.10;45.80;;;;;;4905285;28;20430;-77
2021/10/12 10:40:03;;;;;;;1.80;1.17;;;29.50;45.40;;;;;;4905139;29;20449;-78
2021/10/12 10:42:50;;;;;;;3.03;1.30;;;29.80;45.00;;;;;;4904873;28;20449;-79
2021/10/12 10:45:18;;;;;;;2.00;1.50;;;30.20;44.80;;;;;;4917754;29;20517;-79
2021/10/12 10:47:47;;;;;;;2.40;1.50;;;30.40;44.30;;;;;;4923365;29;20464;-79
2021/10/12 10:50:15;;;;;;;3.10;1.60;;;30.80;44.20;;;;;;4924274;29;20527;-79
2021/10/12 10:52:45;;;;;;;3.23;1.37;;;31.10;43.70;;;;;;4923736;28;20459;-80
2021/10/12 10:55:19;;;;;;;3.00;1.63;;;31.40;43.50;;;;;;4916013;29;20475;-80
2021/10/12 10:58:03;;;;;;;5.00;1.30;;;31.80;43.10;;;;;;4904990;29;20460;-80
2021/10/12 11:00:38;;;;;;;5.53;1.33;;;32.50;42.50;;;;;;4904726;29;20484;-80
2021/10/12 11:03:06;;;;;;;2.40;1.50;;;33.30;40.70;;;;;;4904224;29;20517;-80
2021/10/12 11:05:37;;;;;;;1.50;1.20;;;32.60;40.70;;;;;;4904689;28;20571;-80
2021/10/12 11:08:14;;;;;;;1.20;1.13;;;32.00;41.40;;;;;;4905124;29;20468;-81
2021/10/12 11:10:43;;;;;;;6.50;1.27;;;31.70;42.10;;;;;;4904697;29;20434;-80
2021/10/12 11:13:11;;;;;;;2.10;1.33;;;31.50;42.10;;;;;;4904415;28;20423;-80
2021/10/12 11:15:49;;;;;;;1.73;1.23;;;31.10;42.50;;;;;;4904725;29;20470;-80
2021/10/12 11:18:17;;;;;;;10.53;1.63;;;30.70;43.10;;;;;;4904963;29;20465;-80
2021/10/12 11:20:46;;;;;;;2.90;1.70;;;30.40;43.70;;;;;;4904701;29;20453;-79
2021/10/12 11:23:23;;;;;;;1.77;1.30;;;30.20;44.10;;;;;;4904247;29;20452;-80
2021/10/12 11:25:56;;;;;;;4.20;1.63;;;31.90;45.00;;;;;;4904530;29;20492;-80
2021/10/12 11:28:24;;;;;;;2.37;1.40;;;33.70;41.30;;;;;;4904351;29;20448;-80
2021/10/12 11:30:52;;;;;;;2.00;1.00;;;35.60;39.00;;;;;;4904314;29;20485;-79
2021/10/12 11:33:31;;;;;;;1.30;1.20;;;37.00;37.10;;;;;;4904297;28;20457;-78
2021/10/12 11:35:59;;;;;;;1.73;1.17;;;38.30;34.50;;;;;;4904125;29;20430;-80
2021/10/12 11:38:33;;;;;;;1.53;1.10;;;39.40;32.90;;;;;;4903507;29;20507;-80
2021/10/12 11:41:13;;;;;;;1.30;1.20;;;40.30;31.50;;;;;;4903925;28;20468;-80
2021/10/12 11:43:42;;;;;;;1.43;1.10;;;41.10;30.00;;;;;;4903470;29;20472;-80
2021/10/12 11:46:11;;;;;;;1.10;1.10;;;41.80;29.40;;;;;;4885281;28;20465;-81
2021/10/12 11:48:39;;;;;;;1.10;1.03;;;42.40;28.90;;;;;;4889147;28;20479;-79
2021/10/12 11:51:15;;;;;;;3.80;0.97;;;42.90;28.40;;;;;;4903828;28;20448;-80
2021/10/12 11:53:44;;;;;;;1.70;0.90;;;43.30;27.50;;;;;;4903561;29;20444;-80
2021/10/12 11:56:13;;;;;;;1.37;1.03;;;43.80;27.10;;;;;;4903361;28;20476;-81
2021/10/12 11:58:41;;;;;;;1.23;0.90;;;44.10;26.70;;;;;;4910995;28;20475;-82
2021/10/12 12:01:10;;;;;;;1.23;1.00;;;44.50;26.40;;;;;;4906178;28;20488;-81
2021/10/12 12:03:41;;;;;;;2.20;0.90;;;44.80;26.00;;;;;;4904708;29;20435;-81
2021/10/12 12:06:10;;;;;;;1.10;1.00;;;45.10;25.80;;;;;;4906566;29;20438;-80
2021/10/12 12:08:40;;;;;;;1.27;1.00;;;45.30;25.60;;;;;;4906408;29;20437;-80
2021/10/12 12:11:09;;;;;;;1.00;0.90;;;45.50;25.30;;;;;;4906788;28;20526;-81
2021/10/12 12:13:37;;;;;;;0.83;0.83;;;45.80;25.00;;;;;;4906888;29;20556;-81
2021/10/12 12:16:06;;;;;;;2.00;1.00;;;45.40;24.90;;;;;;4914307;29;20588;-80
2021/10/12 12:18:39;;;;;;;1.03;0.90;;;43.70;25.70;;;;;;4897528;28;20461;-84
2021/10/12 12:21:10;;;;;;;1.10;1.00;;;43.50;26.30;;;;;;4898390;28;20559;-84
2021/10/12 12:23:40;;;;;;;2.00;1.20;;;41.80;27.00;;;;;;4906036;28;20471;-83
2021/10/12 12:26:14;;;;;;;4.00;1.20;;;40.00;28.20;;;;;;4919181;28;20566;-83
2021/10/12 12:28:42;;;;;;;1.10;1.00;;;38.60;29.80;;;;;;4925358;28;20469;-83
2021/10/12 12:31:24;;;;;;;3.17;1.10;;;37.50;30.90;;;;;;4905116;28;20548;-84
2021/10/12 12:33:53;;;;;;;2.57;1.10;;;36.50;32.40;;;;;;4921529;28;20522;-84
2021/10/12 12:36:35;;;;;;;1.53;1.33;;;35.60;33.30;;;;;;4925939;28;20474;-83
2021/10/12 12:39:06;;;;;;;2.27;0.97;;;34.80;34.70;;;;;;4908551;28;20489;-82
2021/10/12 12:41:39;;;;;;;2.03;1.10;;;34.20;35.40;;;;;;4896869;28;20493;-83
2021/10/12 12:44:08;;;;;;;1.27;1.07;;;34.70;38.40;;;;;;4927979;28;20453;-82
2021/10/12 12:46:43;;;;;;;1.20;1.10;;;36.90;35.10;;;;;;4927316;28;20560;-82
2021/10/12 12:49:13;;;;;;;1.20;0.87;;;38.80;32.00;;;;;;4913479;28;20453;-82
2021/10/12 12:51:46;;;;;;;1.03;1.03;;;40.30;30.00;;;;;;4935335;28;20619;-81
2021/10/12 12:54:36;;;;;;;1.50;1.00;;;40.70;28.40;;;;;;4917601;28;20516;-81
2021/10/12 12:57:09;;;;;;;2.53;0.90;;;39.00;29.60;;;;;;4910289;28;20493;-81
2021/10/12 12:59:39;;;;;;;1.67;1.00;;;38.40;30.50;;;;;;4898373;28;20487;-80
2021/10/12 13:02:17;;;;;;;1.70;1.20;;;39.20;31.00;;;;;;4944555;28;20465;-80